sensor_id;sensor_type;location;lat;lon;timestamp;temperature;humidity
19152;DHT22;9708;53.114;9.388;2022-10-19T02:44:35;11.90;99.90
19152;DHT22;9708;53.114;9.388;2022-10-19T02:47:06;11.90;99.90
19152;DHT22;9708;53.114;9.388;2022-10-19T02:49:36;11.90;99.90
19152;DHT22;9708;53.114;9.388;2022-10-19T02:52:05;11.90;99.90
19152;DHT22;9708;53.114;9.388;2022-10-19T02:54:32;11.90;99.90
19152;DHT22;9708;53.114;9.388;2022-10-19T02:56:59;11.90;99.90
19152;DHT22;9708;53.114;9.388;2022-10-19T02:59:26;12.00;99.90
19152;DHT22;9708;53.114;9.388;2022-10-19T03:01:54;12.00;99.90
19152;DHT22;9708;53.114;9.388;2022-10-19T03:04:21;11.90;99.90
19152;DHT22;9708;53.114;9.388;2022-10-19T03:06:48;11.90;99.90
19152;DHT22;9708;53.114;9.388;2022-10-19T03:09:14;11.90;99.90
19152;DHT22;9708;53.114;9.388;2022-10-19T03:11:41;11.90;99.90
19152;DHT22;9708;53.114;9.388;2022-10-19T03:14:08;11.80;99.90
19152;DHT22;9708;53.114;9.388;2022-10-19T03:16:35;11.80;99.90
19152;DHT22;9708;53.114;9.388;2022-10-19T03:19:03;11.90;99.90
19152;DHT22;9708;53.114;9.388;2022-10-19T03:21:30;11.80;99.90
19152;DHT22;9708;53.114;9.388;2022-10-19T03:23:58;11.80;99.90
19152;DHT22;9708;53.114;9.388;2022-10-19T03:26:25;11.70;99.90
19152;DHT22;9708;53.114;9.388;2022-10-19T03:28:51;11.70;99.90
19152;DHT22;9708;53.114;9.388;2022-10-19T03:31:18;11.70;99.90
19152;DHT22;9708;53.114;9.388;2022-10-19T03:33:45;11.70;99.90
19152;DHT22;9708;53.114;9.388;2022-10-19T03:36:15;11.60;99.90
19152;DHT22;9708;53.114;9.388;2022-10-19T03:38:42;11.60;99.90
19152;DHT22;9708;53.114;9.388;2022-10-19T03:41:09;11.60;99.90
19152;DHT22;9708;53.114;9.388;2022-10-19T03:43:36;11.60;99.90
19152;DHT22;9708;53.114;9.388;2022-10-19T03:46:02;11.60;99.90
19152;DHT22;9708;53.114;9.388;2022-10-19T03:48:29;11.50;99.90
19152;DHT22;9708;53.114;9.388;2022-10-19T03:50:59;11.50;99.90
19152;DHT22;9708;53.114;9.388;2022-10-19T03:53:27;11.60;99.90
19152;DHT22;9708;53.114;9.388;2022-10-19T03:56:00;11.60;99.90
19152;DHT22;9708;53.114;9.388;2022-10-19T03:58:27;11.50;99.90
19152;DHT22;9708;53.114;9.388;2022-10-19T04:00:54;11.50;99.90
19152;DHT22;9708;53.114;9.388;2022-10-19T04:03:21;11.60;99.90
19152;DHT22;9708;53.114;9.388;2022-10-19T04:05:48;11.60;99.90
19152;DHT22;9708;53.114;9.388;2022-10-19T04:08:14;11.70;99.90
19152;DHT22;9708;53.114;9.388;2022-10-19T04:10:42;11.60;99.90
19152;DHT22;9708;53.114;9.388;2022-10-19T04:13:09;11.70;99.90
19152;DHT22;9708;53.114;9.388;2022-10-19T04:15:36;11.70;99.90
19152;DHT22;9708;53.114;9.388;2022-10-19T04:18:03;11.70;99.90
19152;DHT22;9708;53.114;9.388;2022-10-19T04:20:30;11.70;99.90
19152;DHT22;9708;53.114;9.388;2022-10-19T04:22:56;11.70;99.90
19152;DHT22;9708;53.114;9.388;2022-10-19T04:25:23;11.70;99.90
19152;DHT22;9708;53.114;9.388;2022-10-19T04:27:51;11.70;99.90
19152;DHT22;9708;53.114;9.388;2022-10-19T04:30:18;11.70;99.90
19152;DHT22;9708;53.114;9.388;2022-10-19T04:32:45;11.70;99.90
19152;DHT22;9708;53.114;9.388;2022-10-19T04:35:12;11.70;99.90
19152;DHT22;9708;53.114;9.388;2022-10-19T04:37:38;11.70;99.90
19152;DHT22;9708;53.114;9.388;2022-10-19T04:40:06;11.70;99.90
19152;DHT22;9708;53.114;9.388;2022-10-19T04:42:34;11.70;99.90
19152;DHT22;9708;53.114;9.388;2022-10-19T04:45:02;11.70;99.90
19152;DHT22;9708;53.114;9.388;2022-10-19T04:47:29;11.70;99.90
19152;DHT22;9708;53.114;9.388;2022-10-19T04:49:56;11.70;99.90
19152;DHT22;9708;53.114;9.388;2022-10-19T04:52:23;11.70;99.90
19152;DHT22;9708;53.114;9.388;2022-10-19T04:54:50;11.70;99.90
19152;DHT22;9708;53.114;9.388;2022-10-19T04:57:16;11.70;99.90
19152;DHT22;9708;53.114;9.388;2022-10-19T04:59:43;11.70;99.90
19152;DHT22;9708;53.114;9.388;2022-10-19T05:02:11;11.70;99.90
19152;DHT22;9708;53.114;9.388;2022-10-19T05:04:38;11.70;99.90
19152;DHT22;9708;53.114;9.388;2022-10-19T05:07:05;11.70;99.90
19152;DHT22;9708;53.114;9.388;2022-10-19T05:09:31;11.70;99.90
19152;DHT22;9708;53.114;9.388;2022-10-19T05:11:58;11.70;99.90
19152;DHT22;9708;53.114;9.388;2022-10-19T05:14:25;11.70;99.90
19152;DHT22;9708;53.114;9.388;2022-10-19T05:16:52;11.70;99.90
19152;DHT22;9708;53.114;9.388;2022-10-19T05:19:20;11.70;99.90
19152;DHT22;9708;53.114;9.388;2022-10-19T05:21:46;11.70;99.90
19152;DHT22;9708;53.114;9.388;2022-10-19T05:24:13;11.70;99.90
19152;DHT22;9708;53.114;9.388;2022-10-19T05:26:40;11.60;99.90
19152;DHT22;9708;53.114;9.388;2022-10-19T05:29:10;11.70;99.90
19152;DHT22;9708;53.114;9.388;2022-10-19T05:31:37;11.60;99.90
19152;DHT22;9708;53.114;9.388;2022-10-19T05:34:04;11.70;99.90
19152;DHT22;9708;53.114;9.388;2022-10-19T05:36:33;11.70;99.90
19152;DHT22;9708;53.114;9.388;2022-10-19T05:39:03;11.70;99.90
19152;DHT22;9708;53.114;9.388;2022-10-19T05:41:30;11.60;99.90
19152;DHT22;9708;53.114;9.388;2022-10-19T05:43:58;11.60;99.90
19152;DHT22;9708;53.114;9.388;2022-10-19T05:46:26;11.70;99.90
19152;DHT22;9708;53.114;9.388;2022-10-19T05:48:54;11.60;99.90
19152;DHT22;9708;53.114;9.388;2022-10-19T05:51:22;11.60;99.90
19152;DHT22;9708;53.114;9.388;2022-10-19T05:53:51;11.60;99.90
19152;DHT22;9708;53.114;9.388;2022-10-19T05:56:19;11.60;99.90
19152;DHT22;9708;53.114;9.388;2022-10-19T05:58:46;11.60;99.90
19152;DHT22;9708;53.114;9.388;2022-10-19T06:01:14;11.60;99.90
19152;DHT22;9708;53.114;9.388;2022-10-19T06:03:43;11.70;99.90
19152;DHT22;9708;53.114;9.388;2022-10-19T06:06:10;11.60;99.90
19152;DHT22;9708;53.114;9.388;2022-10-19T06:08:38;11.60;99.90
19152;DHT22;9708;53.114;9.388;2022-10-19T06:11:08;11.60;99.90
19152;DHT22;9708;53.114;9.388;2022-10-19T06:13:36;11.60;99.90
19152;DHT22;9708;53.114;9.388;2022-10-19T06:16:03;11.60;99.90
19152;DHT22;9708;53.114;9.388;2022-10-19T06:18:31;11.70;99.90
19152;DHT22;9708;53.114;9.388;2022-10-19T06:21:01;11.70;99.90
19152;DHT22;9708;53.114;9.388;2022-10-19T06:23:28;11.70;99.90
19152;DHT22;9708;53.114;9.388;2022-10-19T06:25:55;11.80;99.90
19152;DHT22;9708;53.114;9.388;2022-10-19T06:28:23;11.80;99.90
19152;DHT22;9708;53.114;9.388;2022-10-19T06:30:50;11.80;99.90
19152;DHT22;9708;53.114;9.388;2022-10-19T06:33:17;11.90;99.90
19152;DHT22;9708;53.114;9.388;2022-10-19T06:35:43;11.80;99.90
19152;DHT22;9708;53.114;9.388;2022-10-19T06:38:10;11.90;99.90
19152;DHT22;9708;53.114;9.388;2022-10-19T06:40:38;11.80;99.90
19152;DHT22;9708;53.114;9.388;2022-10-19T06:43:05;11.80;99.90
19152;DHT22;9708;53.114;9.388;2022-10-19T06:45:33;12.00;99.90
19152;DHT22;9708;53.114;9.388;2022-10-19T06:48:02;12.00;99.90
19152;DHT22;9708;53.114;9.388;2022-10-19T06:50:29;12.00;99.90
19152;DHT22;9708;53.114;9.388;2022-10-19T06:52:57;12.00;99.90
19152;DHT22;9708;53.114;9.388;2022-10-19T06:55:24;12.00;99.90
19152;DHT22;9708;53.114;9.388;2022-10-19T06:57:51;12.10;99.90
19152;DHT22;9708;53.114;9.388;2022-10-19T07:00:18;12.20;99.90
19152;DHT22;9708;53.114;9.388;2022-10-19T07:02:46;12.20;99.90
19152;DHT22;9708;53.114;9.388;2022-10-19T07:05:15;12.20;99.90
19152;DHT22;9708;53.114;9.388;2022-10-19T07:07:42;12.30;99.90
19152;DHT22;9708;53.114;9.388;2022-10-19T07:10:10;12.30;99.90
19152;DHT22;9708;53.114;9.388;2022-10-19T07:12:37;12.40;99.90
19152;DHT22;9708;53.114;9.388;2022-10-19T07:15:04;12.50;99.90
19152;DHT22;9708;53.114;9.388;2022-10-19T07:17:31;12.60;99.90
19152;DHT22;9708;53.114;9.388;2022-10-19T07:19:59;12.50;99.90
19152;DHT22;9708;53.114;9.388;2022-10-19T07:22:26;12.50;99.90
19152;DHT22;9708;53.114;9.388;2022-10-19T07:24:53;12.60;99.90
19152;DHT22;9708;53.114;9.388;2022-10-19T07:27:20;12.50;99.90
19152;DHT22;9708;53.114;9.388;2022-10-19T07:29:47;12.60;99.90
19152;DHT22;9708;53.114;9.388;2022-10-19T07:32:13;12.60;99.90
19152;DHT22;9708;53.114;9.388;2022-10-19T07:34:40;12.70;99.90
19152;DHT22;9708;53.114;9.388;2022-10-19T07:37:08;12.70;99.90
19152;DHT22;9708;53.114;9.388;2022-10-19T07:39:35;12.80;99.90
19152;DHT22;9708;53.114;9.388;2022-10-19T07:42:02;12.90;99.90
19152;DHT22;9708;53.114;9.388;2022-10-19T07:44:29;13.00;99.90
19152;DHT22;9708;53.114;9.388;2022-10-19T07:46:56;13.00;99.90
19152;DHT22;9708;53.114;9.388;2022-10-19T07:49:23;13.20;99.90
19152;DHT22;9708;53.114;9.388;2022-10-19T07:51:49;13.20;99.90
19152;DHT22;9708;53.114;9.388;2022-10-19T07:54:19;13.30;99.90
19152;DHT22;9708;53.114;9.388;2022-10-19T07:56:50;13.30;99.90
19152;DHT22;9708;53.114;9.388;2022-10-19T07:59:16;13.30;99.90
19152;DHT22;9708;53.114;9.388;2022-10-19T08:01:43;13.40;99.90
19152;DHT22;9708;53.114;9.388;2022-10-19T08:04:10;13.40;99.90
19152;DHT22;9708;53.114;9.388;2022-10-19T08:06:37;13.50;99.90
19152;DHT22;9708;53.114;9.388;2022-10-19T08:09:04;13.60;99.90
19152;DHT22;9708;53.114;9.388;2022-10-19T08:11:33;13.60;99.90
19152;DHT22;9708;53.114;9.388;2022-10-19T08:14:01;13.70;99.90
19152;DHT22;9708;53.114;9.388;2022-10-19T08:16:29;13.80;99.90
19152;DHT22;9708;53.114;9.388;2022-10-19T08:18:58;13.90;99.90
19152;DHT22;9708;53.114;9.388;2022-10-19T08:21:26;13.90;99.90
19152;DHT22;9708;53.114;9.388;2022-10-19T08:23:53;14.00;99.90
19152;DHT22;9708;53.114;9.388;2022-10-19T08:26:20;14.30;99.90
19152;DHT22;9708;53.114;9.388;2022-10-19T08:28:48;14.40;99.90
19152;DHT22;9708;53.114;9.388;2022-10-19T08:31:17;14.40;99.90
19152;DHT22;9708;53.114;9.388;2022-10-19T08:33:44;14.40;99.90
19152;DHT22;9708;53.114;9.388;2022-10-19T08:36:12;14.40;99.90
19152;DHT22;9708;53.114;9.388;2022-10-19T08:38:39;14.40;99.90
19152;DHT22;9708;53.114;9.388;2022-10-19T08:41:20;14.60;99.90
19152;DHT22;9708;53.114;9.388;2022-10-19T08:43:58;14.60;99.90
19152;DHT22;9708;53.114;9.388;2022-10-19T08:46:37;14.70;99.90
19152;DHT22;9708;53.114;9.388;2022-10-19T08:49:07;14.90;99.90
19152;DHT22;9708;53.114;9.388;2022-10-19T08:51:38;15.10;99.90
19152;DHT22;9708;53.114;9.388;2022-10-19T08:54:10;15.50;99.90
19152;DHT22;9708;53.114;9.388;2022-10-19T08:56:46;15.60;99.90
19152;DHT22;9708;53.114;9.388;2022-10-19T08:59:23;16.00;99.90
19152;DHT22;9708;53.114;9.388;2022-10-19T09:01:54;17.20;99.90
19152;DHT22;9708;53.114;9.388;2022-10-19T09:04:24;18.50;99.90
19152;DHT22;9708;53.114;9.388;2022-10-19T09:06:58;18.60;99.90
19152;DHT22;9708;53.114;9.388;2022-10-19T09:09:29;18.50;99.90
19152;DHT22;9708;53.114;9.388;2022-10-19T09:12:02;17.80;99.90
19152;DHT22;9708;53.114;9.388;2022-10-19T09:14:34;17.30;99.90
19152;DHT22;9708;53.114;9.388;2022-10-19T09:17:09;17.50;99.90
19152;DHT22;9708;53.114;9.388;2022-10-19T09:19:37;17.60;99.90
19152;DHT22;9708;53.114;9.388;2022-10-19T09:22:07;17.60;99.90
19152;DHT22;9708;53.114;9.388;2022-10-19T09:24:41;17.50;99.90
19152;DHT22;9708;53.114;9.388;2022-10-19T09:27:17;18.20;99.90
19152;DHT22;9708;53.114;9.388;2022-10-19T09:29:50;19.10;99.90
19152;DHT22;9708;53.114;9.388;2022-10-19T09:32:22;19.70;99.90
19152;DHT22;9708;53.114;9.388;2022-10-19T09:34:51;19.20;99.90
19152;DHT22;9708;53.114;9.388;2022-10-19T09:37:20;18.20;99.90
19152;DHT22;9708;53.114;9.388;2022-10-19T09:39:47;17.60;99.90
19152;DHT22;9708;53.114;9.388;2022-10-19T09:42:20;18.00;99.90
19152;DHT22;9708;53.114;9.388;2022-10-19T09:44:50;19.20;99.90
19152;DHT22;9708;53.114;9.388;2022-10-19T09:47:30;19.90;99.90
19152;DHT22;9708;53.114;9.388;2022-10-19T09:50:16;21.20;99.90
19152;DHT22;9708;53.114;9.388;2022-10-19T09:52:44;21.70;99.90
19152;DHT22;9708;53.114;9.388;2022-10-19T09:55:22;20.30;99.90
19152;DHT22;9708;53.114;9.388;2022-10-19T09:57:59;19.60;99.90
19152;DHT22;9708;53.114;9.388;2022-10-19T10:00:34;19.30;99.90
19152;DHT22;9708;53.114;9.388;2022-10-19T10:03:01;19.90;99.90
19152;DHT22;9708;53.114;9.388;2022-10-19T10:05:33;19.50;99.90
19152;DHT22;9708;53.114;9.388;2022-10-19T10:08:01;18.30;99.90
19152;DHT22;9708;53.114;9.388;2022-10-19T10:10:30;17.50;99.90
19152;DHT22;9708;53.114;9.388;2022-10-19T10:12:59;16.90;99.90
19152;DHT22;9708;53.114;9.388;2022-10-19T10:15:34;16.50;99.90
19152;DHT22;9708;53.114;9.388;2022-10-19T10:18:02;16.40;99.90
19152;DHT22;9708;53.114;9.388;2022-10-19T10:20:30;16.30;99.90
19152;DHT22;9708;53.114;9.388;2022-10-19T10:22:59;17.20;99.90
19152;DHT22;9708;53.114;9.388;2022-10-19T10:25:30;17.90;99.90
19152;DHT22;9708;53.114;9.388;2022-10-19T10:27:59;18.50;99.90
19152;DHT22;9708;53.114;9.388;2022-10-19T10:30:32;18.30;99.90
19152;DHT22;9708;53.114;9.388;2022-10-19T10:33:00;18.20;99.90
19152;DHT22;9708;53.114;9.388;2022-10-19T10:35:30;18.90;99.90
19152;DHT22;9708;53.114;9.388;2022-10-19T10:38:10;19.30;99.90
19152;DHT22;9708;53.114;9.388;2022-10-19T10:40:39;19.90;99.90
19152;DHT22;9708;53.114;9.388;2022-10-19T10:43:11;20.40;99.90
19152;DHT22;9708;53.114;9.388;2022-10-19T10:45:43;20.00;99.90
19152;DHT22;9708;53.114;9.388;2022-10-19T10:48:22;18.70;99.90
19152;DHT22;9708;53.114;9.388;2022-10-19T10:50:52;17.90;99.90
19152;DHT22;9708;53.114;9.388;2022-10-19T10:53:34;17.30;99.90
19152;DHT22;9708;53.114;9.388;2022-10-19T10:56:04;16.90;99.90
19152;DHT22;9708;53.114;9.388;2022-10-19T10:58:39;16.60;99.90
19152;DHT22;9708;53.114;9.388;2022-10-19T11:01:18;16.70;99.90
19152;DHT22;9708;53.114;9.388;2022-10-19T11:03:50;17.40;99.90
19152;DHT22;9708;53.114;9.388;2022-10-19T11:06:20;18.30;99.90
19152;DHT22;9708;53.114;9.388;2022-10-19T11:08:50;18.90;99.90
19152;DHT22;9708;53.114;9.388;2022-10-19T11:11:23;19.60;99.90
19152;DHT22;9708;53.114;9.388;2022-10-19T11:13:55;19.30;99.90
19152;DHT22;9708;53.114;9.388;2022-10-19T11:16:27;18.80;99.90
19152;DHT22;9708;53.114;9.388;2022-10-19T11:18:59;19.10;99.90
19152;DHT22;9708;53.114;9.388;2022-10-19T11:21:30;20.30;99.90
19152;DHT22;9708;53.114;9.388;2022-10-19T11:24:06;21.30;99.90
19152;DHT22;9708;53.114;9.388;2022-10-19T11:26:51;21.70;99.90
19152;DHT22;9708;53.114;9.388;2022-10-19T11:29:29;20.30;99.90
19152;DHT22;9708;53.114;9.388;2022-10-19T11:32:01;20.10;99.90
19152;DHT22;9708;53.114;9.388;2022-10-19T11:34:39;20.00;99.90
19152;DHT22;9708;53.114;9.388;2022-10-19T11:37:19;21.20;99.90
19152;DHT22;9708;53.114;9.388;2022-10-19T11:40:02;21.60;99.90
19152;DHT22;9708;53.114;9.388;2022-10-19T11:42:42;22.40;99.90
19152;DHT22;9708;53.114;9.388;2022-10-19T11:45:18;22.90;99.90
19152;DHT22;9708;53.114;9.388;2022-10-19T11:48:01;22.50;99.90
19152;DHT22;9708;53.114;9.388;2022-10-19T11:50:41;22.80;99.90
19152;DHT22;9708;53.114;9.388;2022-10-19T11:53:16;22.60;99.90
19152;DHT22;9708;53.114;9.388;2022-10-19T11:55:52;23.00;99.90
19152;DHT22;9708;53.114;9.388;2022-10-19T12:01:34;23.20;99.90
19152;DHT22;9708;53.114;9.388;2022-10-19T12:07:00;22.20;99.90
19152;DHT22;9708;53.114;9.388;2022-10-19T12:09:38;22.60;99.90
19152;DHT22;9708;53.114;9.388;2022-10-19T12:12:26;22.30;99.90
19152;DHT22;9708;53.114;9.388;2022-10-19T12:15:02;21.90;99.90
19152;DHT22;9708;53.114;9.388;2022-10-19T12:17:34;20.40;99.90
19152;DHT22;9708;53.114;9.388;2022-10-19T12:20:07;20.50;99.90
19152;DHT22;9708;53.114;9.388;2022-10-19T12:22:35;19.70;99.90
19152;DHT22;9708;53.114;9.388;2022-10-19T12:25:03;19.30;99.90
19152;DHT22;9708;53.114;9.388;2022-10-19T12:27:34;18.90;99.90
19152;DHT22;9708;53.114;9.388;2022-10-19T12:30:05;18.40;99.90
19152;DHT22;9708;53.114;9.388;2022-10-19T12:32:40;18.30;99.90
19152;DHT22;9708;53.114;9.388;2022-10-19T12:35:23;18.50;99.90
19152;DHT22;9708;53.114;9.388;2022-10-19T12:37:56;17.90;99.90
19152;DHT22;9708;53.114;9.388;2022-10-19T12:40:32;18.00;99.90
19152;DHT22;9708;53.114;9.388;2022-10-19T12:43:06;17.90;99.90
19152;DHT22;9708;53.114;9.388;2022-10-19T12:45:35;17.80;99.90
19152;DHT22;9708;53.114;9.388;2022-10-19T12:48:22;17.80;99.90
19152;DHT22;9708;53.114;9.388;2022-10-19T12:51:08;18.00;99.90
19152;DHT22;9708;53.114;9.388;2022-10-19T12:53:39;17.50;99.90
19152;DHT22;9708;53.114;9.388;2022-10-19T12:56:09;17.00;99.90
19152;DHT22;9708;53.114;9.388;2022-10-19T12:58:44;17.00;99.90
19152;DHT22;9708;53.114;9.388;2022-10-19T13:01:16;17.20;99.90
19152;DHT22;9708;53.114;9.388;2022-10-19T13:03:43;17.20;99.90
19152;DHT22;9708;53.114;9.388;2022-10-19T13:06:16;17.20;99.90
19152;DHT22;9708;53.114;9.388;2022-10-19T13:08:47;17.30;99.90
19152;DHT22;9708;53.114;9.388;2022-10-19T13:11:20;17.10;99.90
19152;DHT22;9708;53.114;9.388;2022-10-19T13:13:54;16.70;99.90
19152;DHT22;9708;53.114;9.388;2022-10-19T13:16:55;16.70;99.90
19152;DHT22;9708;53.114;9.388;2022-10-19T13:19:23;16.90;99.90
19152;DHT22;9708;53.114;9.388;2022-10-19T13:25:23;16.80;99.90
19152;DHT22;9708;53.114;9.388;2022-10-19T13:27:53;16.60;99.90
19152;DHT22;9708;53.114;9.388;2022-10-19T13:33:40;17.00;99.90
19152;DHT22;9708;53.114;9.388;2022-10-19T13:36:10;16.80;99.90
19152;DHT22;9708;53.114;9.388;2022-10-19T13:38:38;16.50;99.90
19152;DHT22;9708;53.114;9.388;2022-10-19T13:41:23;16.40;99.90
19152;DHT22;9708;53.114;9.388;2022-10-19T13:44:02;16.60;99.90
19152;DHT22;9708;53.114;9.388;2022-10-19T13:46:42;16.70;99.90
19152;DHT22;9708;53.114;9.388;2022-10-19T13:52:53;17.10;99.90
19152;DHT22;9708;53.114;9.388;2022-10-19T13:55:50;17.40;99.90
19152;DHT22;9708;53.114;9.388;2022-10-19T13:58:42;17.50;99.90
19152;DHT22;9708;53.114;9.388;2022-10-19T14:01:25;17.40;99.90
19152;DHT22;9708;53.114;9.388;2022-10-19T14:04:06;17.10;99.90
19152;DHT22;9708;53.114;9.388;2022-10-19T14:06:40;16.70;99.90
19152;DHT22;9708;53.114;9.388;2022-10-19T14:12:16;16.60;99.90
19152;DHT22;9708;53.114;9.388;2022-10-19T14:14:45;16.50;99.90
19152;DHT22;9708;53.114;9.388;2022-10-19T14:17:17;16.30;99.90
19152;DHT22;9708;53.114;9.388;2022-10-19T14:19:49;16.20;99.90
19152;DHT22;9708;53.114;9.388;2022-10-19T14:22:19;16.20;99.90
19152;DHT22;9708;53.114;9.388;2022-10-19T14:24:46;16.00;99.90
19152;DHT22;9708;53.114;9.388;2022-10-19T14:27:29;15.90;99.90
19152;DHT22;9708;53.114;9.388;2022-10-19T14:29:57;15.80;99.90
19152;DHT22;9708;53.114;9.388;2022-10-19T14:32:25;15.70;99.90
19152;DHT22;9708;53.114;9.388;2022-10-19T14:35:01;15.70;99.90
19152;DHT22;9708;53.114;9.388;2022-10-19T14:37:28;15.70;99.90
19152;DHT22;9708;53.114;9.388;2022-10-19T14:40:00;15.60;99.90
19152;DHT22;9708;53.114;9.388;2022-10-19T14:42:42;15.60;99.90
19152;DHT22;9708;53.114;9.388;2022-10-19T14:45:15;15.40;99.90
19152;DHT22;9708;53.114;9.388;2022-10-19T14:47:57;15.40;99.90
19152;DHT22;9708;53.114;9.388;2022-10-19T14:50:40;15.50;99.90
19152;DHT22;9708;53.114;9.388;2022-10-19T14:53:28;15.40;99.90
19152;DHT22;9708;53.114;9.388;2022-10-19T14:56:00;15.50;99.90
19152;DHT22;9708;53.114;9.388;2022-10-19T14:58:34;15.60;99.90
19152;DHT22;9708;53.114;9.388;2022-10-19T15:01:04;15.70;99.90
19152;DHT22;9708;53.114;9.388;2022-10-19T15:03:32;15.70;99.90
19152;DHT22;9708;53.114;9.388;2022-10-19T15:06:02;15.60;99.90
19152;DHT22;9708;53.114;9.388;2022-10-19T15:08:34;15.70;99.90
19152;DHT22;9708;53.114;9.388;2022-10-19T15:11:02;15.70;99.90
19152;DHT22;9708;53.114;9.388;2022-10-19T15:13:31;15.80;99.90
19152;DHT22;9708;53.114;9.388;2022-10-19T15:15:58;15.90;99.90
19152;DHT22;9708;53.114;9.388;2022-10-19T15:18:33;15.50;99.90
19152;DHT22;9708;53.114;9.388;2022-10-19T15:21:02;15.40;99.90
19152;DHT22;9708;53.114;9.388;2022-10-19T15:23:36;15.20;99.90
19152;DHT22;9708;53.114;9.388;2022-10-19T15:26:13;15.20;99.90
19152;DHT22;9708;53.114;9.388;2022-10-19T15:28:40;14.90;99.90
19152;DHT22;9708;53.114;9.388;2022-10-19T15:31:14;14.60;99.90
19152;DHT22;9708;53.114;9.388;2022-10-19T15:33:45;14.50;99.90
19152;DHT22;9708;53.114;9.388;2022-10-19T15:36:13;14.50;99.90
19152;DHT22;9708;53.114;9.388;2022-10-19T15:38:43;14.40;99.90
19152;DHT22;9708;53.114;9.388;2022-10-19T15:41:19;14.20;99.90
19152;DHT22;9708;53.114;9.388;2022-10-19T15:43:48;14.10;99.90
19152;DHT22;9708;53.114;9.388;2022-10-19T15:46:21;13.90;99.90
19152;DHT22;9708;53.114;9.388;2022-10-19T15:48:50;13.80;99.90
19152;DHT22;9708;53.114;9.388;2022-10-19T15:51:37;13.50;99.90
19152;DHT22;9708;53.114;9.388;2022-10-19T15:54:06;13.40;99.90
19152;DHT22;9708;53.114;9.388;2022-10-19T15:56:34;13.30;99.90
19152;DHT22;9708;53.114;9.388;2022-10-19T15:59:04;13.20;99.90
19152;DHT22;9708;53.114;9.388;2022-10-19T16:01:31;13.20;99.90
19152;DHT22;9708;53.114;9.388;2022-10-19T16:04:00;13.00;99.90
19152;DHT22;9708;53.114;9.388;2022-10-19T16:06:28;12.90;99.90
19152;DHT22;9708;53.114;9.388;2022-10-19T16:08:56;12.70;99.90
19152;DHT22;9708;53.114;9.388;2022-10-19T16:11:24;12.60;99.90
19152;DHT22;9708;53.114;9.388;2022-10-19T16:13:51;12.40;99.90
19152;DHT22;9708;53.114;9.388;2022-10-19T16:16:21;12.20;99.90
19152;DHT22;9708;53.114;9.388;2022-10-19T16:18:48;12.10;99.90
19152;DHT22;9708;53.114;9.388;2022-10-19T16:21:17;12.00;99.90
19152;DHT22;9708;53.114;9.388;2022-10-19T16:23:44;11.90;99.90
19152;DHT22;9708;53.114;9.388;2022-10-19T16:26:13;11.70;99.90
19152;DHT22;9708;53.114;9.388;2022-10-19T16:28:41;11.60;99.90
19152;DHT22;9708;53.114;9.388;2022-10-19T16:31:08;11.60;99.90
19152;DHT22;9708;53.114;9.388;2022-10-19T16:33:35;11.50;99.90
19152;DHT22;9708;53.114;9.388;2022-10-19T16:36:03;11.40;99.90
19152;DHT22;9708;53.114;9.388;2022-10-19T16:38:32;11.30;99.90
19152;DHT22;9708;53.114;9.388;2022-10-19T16:40:59;11.20;99.90
19152;DHT22;9708;53.114;9.388;2022-10-19T16:43:27;11.10;99.90
19152;DHT22;9708;53.114;9.388;2022-10-19T16:45:54;11.00;99.90
19152;DHT22;9708;53.114;9.388;2022-10-19T16:48:20;10.90;99.90
19152;DHT22;9708;53.114;9.388;2022-10-19T16:51:15;10.90;99.90
19152;DHT22;9708;53.114;9.388;2022-10-19T16:53:44;10.70;99.90
19152;DHT22;9708;53.114;9.388;2022-10-19T16:56:12;10.60;99.90
19152;DHT22;9708;53.114;9.388;2022-10-19T16:58:39;10.50;99.90
19152;DHT22;9708;53.114;9.388;2022-10-19T17:01:06;10.40;99.90
19152;DHT22;9708;53.114;9.388;2022-10-19T17:03:33;10.40;99.90
19152;DHT22;9708;53.114;9.388;2022-10-19T17:06:02;10.40;99.90
19152;DHT22;9708;53.114;9.388;2022-10-19T17:08:30;10.30;99.90
19152;DHT22;9708;53.114;9.388;2022-10-19T17:11:08;10.30;99.90
19152;DHT22;9708;53.114;9.388;2022-10-19T17:13:35;10.10;99.90
19152;DHT22;9708;53.114;9.388;2022-10-19T17:16:02;10.10;99.90
19152;DHT22;9708;53.114;9.388;2022-10-19T17:18:29;10.00;99.90
19152;DHT22;9708;53.114;9.388;2022-10-19T17:21:01;10.00;99.90
19152;DHT22;9708;53.114;9.388;2022-10-19T17:23:28;10.00;99.90
19152;DHT22;9708;53.114;9.388;2022-10-19T17:25:55;9.90;99.90
19152;DHT22;9708;53.114;9.388;2022-10-19T17:28:23;9.80;99.90
19152;DHT22;9708;53.114;9.388;2022-10-19T17:30:50;9.80;99.90
19152;DHT22;9708;53.114;9.388;2022-10-19T17:33:18;9.80;99.90
19152;DHT22;9708;53.114;9.388;2022-10-19T17:35:45;9.80;99.90
19152;DHT22;9708;53.114;9.388;2022-10-19T17:38:12;9.70;99.90
19152;DHT22;9708;53.114;9.388;2022-10-19T17:40:39;9.70;99.90
19152;DHT22;9708;53.114;9.388;2022-10-19T17:43:06;9.70;99.90
19152;DHT22;9708;53.114;9.388;2022-10-19T17:45:34;9.70;99.90
19152;DHT22;9708;53.114;9.388;2022-10-19T17:48:01;9.60;99.90
19152;DHT22;9708;53.114;9.388;2022-10-19T17:50:27;9.50;99.90
19152;DHT22;9708;53.114;9.388;2022-10-19T17:52:54;9.50;99.90
19152;DHT22;9708;53.114;9.388;2022-10-19T17:55:21;9.50;99.90
19152;DHT22;9708;53.114;9.388;2022-10-19T17:57:48;9.50;99.90
19152;DHT22;9708;53.114;9.388;2022-10-19T18:00:14;9.40;99.90
19152;DHT22;9708;53.114;9.388;2022-10-19T18:02:44;9.40;99.90
19152;DHT22;9708;53.114;9.388;2022-10-19T18:05:11;9.50;99.90
19152;DHT22;9708;53.114;9.388;2022-10-19T18:07:38;9.40;99.90
19152;DHT22;9708;53.114;9.388;2022-10-19T18:10:05;9.30;99.90
19152;DHT22;9708;53.114;9.388;2022-10-19T18:12:32;9.30;99.90
19152;DHT22;9708;53.114;9.388;2022-10-19T18:14:58;9.10;99.90
19152;DHT22;9708;53.114;9.388;2022-10-19T18:17:25;9.10;99.90
19152;DHT22;9708;53.114;9.388;2022-10-19T18:19:53;9.00;99.90
19152;DHT22;9708;53.114;9.388;2022-10-19T18:22:20;8.90;99.90
19152;DHT22;9708;53.114;9.388;2022-10-19T18:24:47;8.90;99.90
19152;DHT22;9708;53.114;9.388;2022-10-19T18:27:14;8.90;99.90
19152;DHT22;9708;53.114;9.388;2022-10-19T18:29:41;8.90;99.90
19152;DHT22;9708;53.114;9.388;2022-10-19T18:32:08;8.80;99.90
19152;DHT22;9708;53.114;9.388;2022-10-19T18:34:34;8.70;99.90
19152;DHT22;9708;53.114;9.388;2022-10-19T18:37:02;8.70;99.90
19152;DHT22;9708;53.114;9.388;2022-10-19T18:39:30;8.70;99.90
19152;DHT22;9708;53.114;9.388;2022-10-19T18:41:56;8.70;99.90
19152;DHT22;9708;53.114;9.388;2022-10-19T18:44:23;8.70;99.90
19152;DHT22;9708;53.114;9.388;2022-10-19T18:46:50;8.70;99.90
19152;DHT22;9708;53.114;9.388;2022-10-19T18:49:17;8.70;99.90
19152;DHT22;9708;53.114;9.388;2022-10-19T18:51:44;8.70;99.90
19152;DHT22;9708;53.114;9.388;2022-10-19T18:54:12;8.60;99.90
19152;DHT22;9708;53.114;9.388;2022-10-19T18:56:39;8.60;99.90
19152;DHT22;9708;53.114;9.388;2022-10-19T18:59:06;8.50;99.90
19152;DHT22;9708;53.114;9.388;2022-10-19T19:01:33;8.60;99.90
19152;DHT22;9708;53.114;9.388;2022-10-19T19:04:05;8.60;99.90
19152;DHT22;9708;53.114;9.388;2022-10-19T19:06:32;8.70;99.90
19152;DHT22;9708;53.114;9.388;2022-10-19T19:09:02;8.60;99.90